sensor_id;sensor_type;location;lat;lon;timestamp;pressure;altitude;pressure_sealevel;temperature;humidity
74169;BME280;62523;53.336;83.690;2022-09-09T00:03:41;99622.22;;;8.36;63.73
74169;BME280;62523;53.336;83.690;2022-09-09T00:09:07;99619.94;;;7.86;64.78
74169;BME280;62523;53.336;83.690;2022-09-09T00:14:18;99627.22;;;7.99;64.57
74169;BME280;62523;53.336;83.690;2022-09-09T00:19:29;99629.44;;;7.66;65.77
74169;BME280;62523;53.336;83.690;2022-09-09T00:24:40;99640.13;;;7.62;66.17
74169;BME280;62523;53.336;83.690;2022-09-09T00:29:46;99640.59;;;7.71;65.95
74169;BME280;62523;53.336;83.690;2022-09-09T00:34:52;99655.47;;;7.49;66.78
74169;BME280;62523;53.336;83.690;2022-09-09T00:39:59;99666.63;;;7.54;66.36
74169;BME280;62523;53.336;83.690;2022-09-09T00:45:35;99658.31;;;9.13;60.83
74169;BME280;62523;53.336;83.690;2022-09-09T00:50:55;99653.03;;;9.89;57.38
74169;BME280;62523;53.336;83.690;2022-09-09T01:01:12;99653.09;;;10.23;55.50
74169;BME280;62523;53.336;83.690;2022-09-09T01:11:27;99661.81;;;10.78;53.47
74169;BME280;62523;53.336;83.690;2022-09-09T01:16:32;99647.41;;;11.34;51.72
74169;BME280;62523;53.336;83.690;2022-09-09T01:26:45;99671.25;;;10.30;55.33
74169;BME280;62523;53.336;83.690;2022-09-09T01:32:02;99677.09;;;9.43;57.90
74169;BME280;62523;53.336;83.690;2022-09-09T01:37:08;99676.44;;;9.57;57.70
74169;BME280;62523;53.336;83.690;2022-09-09T01:42:13;99670.69;;;9.87;57.19
74169;BME280;62523;53.336;83.690;2022-09-09T01:47:16;99670.16;;;9.97;56.19
74169;BME280;62523;53.336;83.690;2022-09-09T01:52:18;99676.25;;;10.17;56.18
74169;BME280;62523;53.336;83.690;2022-09-09T01:57:32;99674.44;;;10.17;55.51
74169;BME280;62523;53.336;83.690;2022-09-09T02:13:16;99667.81;;;11.31;53.42
74169;BME280;62523;53.336;83.690;2022-09-09T02:18:25;99665.56;;;11.56;52.53
74169;BME280;62523;53.336;83.690;2022-09-09T02:23:28;99673.88;;;11.48;52.58
74169;BME280;62523;53.336;83.690;2022-09-09T02:28:32;99666.09;;;11.79;51.78
74169;BME280;62523;53.336;83.690;2022-09-09T02:33:43;99671.88;;;11.85;51.58
74169;BME280;62523;53.336;83.690;2022-09-09T02:38:47;99674.72;;;11.98;50.46
74169;BME280;62523;53.336;83.690;2022-09-09T02:43:53;99684.50;;;12.42;49.42
74169;BME280;62523;53.336;83.690;2022-09-09T02:49:07;99688.25;;;12.68;48.38
74169;BME280;62523;53.336;83.690;2022-09-09T02:54:31;99687.16;;;12.87;48.24
74169;BME280;62523;53.336;83.690;2022-09-09T02:59:33;99690.47;;;13.05;46.74
74169;BME280;62523;53.336;83.690;2022-09-09T03:04:34;99690.44;;;13.49;46.28
74169;BME280;62523;53.336;83.690;2022-09-09T03:09:36;99691.00;;;13.55;45.99
74169;BME280;62523;53.336;83.690;2022-09-09T03:14:37;99703.00;;;13.75;45.09
74169;BME280;62523;53.336;83.690;2022-09-09T03:19:39;99699.91;;;13.95;45.28
74169;BME280;62523;53.336;83.690;2022-09-09T03:24:40;99700.44;;;13.59;44.63
74169;BME280;62523;53.336;83.690;2022-09-09T03:29:42;99696.19;;;13.98;43.50
74169;BME280;62523;53.336;83.690;2022-09-09T03:34:44;99696.97;;;14.27;42.64
74169;BME280;62523;53.336;83.690;2022-09-09T03:39:45;99709.69;;;14.34;40.57
74169;BME280;62523;53.336;83.690;2022-09-09T03:44:48;99711.34;;;14.90;39.07
74169;BME280;62523;53.336;83.690;2022-09-09T03:49:55;99713.34;;;14.61;38.65
74169;BME280;62523;53.336;83.690;2022-09-09T03:54:57;99710.72;;;14.86;37.87
74169;BME280;62523;53.336;83.690;2022-09-09T03:59:58;99713.38;;;14.86;36.97
74169;BME280;62523;53.336;83.690;2022-09-09T04:05:01;99701.56;;;15.80;34.63
74169;BME280;62523;53.336;83.690;2022-09-09T04:10:03;99708.31;;;15.34;35.49
74169;BME280;62523;53.336;83.690;2022-09-09T04:15:05;99718.06;;;15.08;35.72
74169;BME280;62523;53.336;83.690;2022-09-09T04:20:06;99721.22;;;14.88;36.37
74169;BME280;62523;53.336;83.690;2022-09-09T04:25:12;99735.72;;;14.69;37.14
74169;BME280;62523;53.336;83.690;2022-09-09T04:30:13;99739.13;;;14.71;37.81
74169;BME280;62523;53.336;83.690;2022-09-09T04:35:14;99742.44;;;14.88;37.18
74169;BME280;62523;53.336;83.690;2022-09-09T04:40:15;99744.00;;;14.78;37.23
74169;BME280;62523;53.336;83.690;2022-09-09T04:45:17;99738.75;;;14.36;38.33
74169;BME280;62523;53.336;83.690;2022-09-09T04:50:19;99736.56;;;14.70;38.05
74169;BME280;62523;53.336;83.690;2022-09-09T04:55:20;99734.88;;;14.82;37.37
74169;BME280;62523;53.336;83.690;2022-09-09T05:00:22;99740.03;;;14.98;37.40
74169;BME280;62523;53.336;83.690;2022-09-09T05:05:23;99747.56;;;15.04;37.09
74169;BME280;62523;53.336;83.690;2022-09-09T05:10:26;99746.84;;;15.27;36.29
74169;BME280;62523;53.336;83.690;2022-09-09T05:15:27;99750.66;;;15.23;36.58
74169;BME280;62523;53.336;83.690;2022-09-09T05:20:29;99746.81;;;15.66;36.01
74169;BME280;62523;53.336;83.690;2022-09-09T05:25:30;99735.59;;;15.24;36.19
74169;BME280;62523;53.336;83.690;2022-09-09T05:30:32;99727.63;;;15.24;35.92
74169;BME280;62523;53.336;83.690;2022-09-09T05:35:33;99731.94;;;15.12;35.82
74169;BME280;62523;53.336;83.690;2022-09-09T05:40:34;99727.94;;;15.45;35.34
74169;BME280;62523;53.336;83.690;2022-09-09T05:45:35;99728.22;;;15.79;34.38
74169;BME280;62523;53.336;83.690;2022-09-09T05:50:37;99729.19;;;16.38;33.90
74169;BME280;62523;53.336;83.690;2022-09-09T05:55:38;99723.25;;;16.11;33.40
74169;BME280;62523;53.336;83.690;2022-09-09T06:00:39;99720.59;;;15.74;34.75
74169;BME280;62523;53.336;83.690;2022-09-09T06:05:40;99717.63;;;16.40;33.97
74169;BME280;62523;53.336;83.690;2022-09-09T06:10:41;99712.34;;;16.27;34.65
74169;BME280;62523;53.336;83.690;2022-09-09T06:15:52;99713.69;;;16.08;34.56
74169;BME280;62523;53.336;83.690;2022-09-09T06:21:02;99698.31;;;16.01;34.41
74169;BME280;62523;53.336;83.690;2022-09-09T06:26:15;99714.94;;;15.79;34.78
74169;BME280;62523;53.336;83.690;2022-09-09T06:31:22;99702.00;;;15.48;35.49
74169;BME280;62523;53.336;83.690;2022-09-09T06:36:29;99715.69;;;15.68;35.21
74169;BME280;62523;53.336;83.690;2022-09-09T06:41:32;99714.75;;;15.56;35.58
74169;BME280;62523;53.336;83.690;2022-09-09T06:46:33;99715.50;;;15.45;36.04
74169;BME280;62523;53.336;83.690;2022-09-09T06:51:37;99715.69;;;15.55;35.88
74169;BME280;62523;53.336;83.690;2022-09-09T06:56:44;99718.34;;;15.68;36.07
74169;BME280;62523;53.336;83.690;2022-09-09T07:01:46;99725.28;;;15.45;37.22
74169;BME280;62523;53.336;83.690;2022-09-09T07:06:53;99718.06;;;15.47;37.78
74169;BME280;62523;53.336;83.690;2022-09-09T07:11:55;99712.13;;;16.30;36.06
74169;BME280;62523;53.336;83.690;2022-09-09T07:17:00;99713.34;;;16.13;36.34
74169;BME280;62523;53.336;83.690;2022-09-09T07:22:01;99709.41;;;15.69;37.27
74169;BME280;62523;53.336;83.690;2022-09-09T07:27:04;99713.59;;;15.60;37.05
74169;BME280;62523;53.336;83.690;2022-09-09T07:32:06;99710.28;;;15.56;37.89
74169;BME280;62523;53.336;83.690;2022-09-09T07:37:07;99710.25;;;15.82;37.27
74169;BME280;62523;53.336;83.690;2022-09-09T07:42:09;99713.44;;;15.87;36.88
74169;BME280;62523;53.336;83.690;2022-09-09T07:47:14;99716.09;;;15.87;36.83
74169;BME280;62523;53.336;83.690;2022-09-09T07:52:15;99711.88;;;15.72;36.93
74169;BME280;62523;53.336;83.690;2022-09-09T07:57:17;99710.97;;;16.21;35.61
74169;BME280;62523;53.336;83.690;2022-09-09T08:02:18;99718.34;;;16.17;34.73
74169;BME280;62523;53.336;83.690;2022-09-09T08:07:19;99708.50;;;16.31;34.27
74169;BME280;62523;53.336;83.690;2022-09-09T08:12:22;99705.38;;;16.13;34.29
74169;BME280;62523;53.336;83.690;2022-09-09T08:17:24;99712.75;;;16.33;33.41
74169;BME280;62523;53.336;83.690;2022-09-09T08:22:25;99705.13;;;16.29;33.29
74169;BME280;62523;53.336;83.690;2022-09-09T08:27:26;99712.28;;;16.40;33.05
74169;BME280;62523;53.336;83.690;2022-09-09T08:32:28;99699.53;;;15.71;33.97
74169;BME280;62523;53.336;83.690;2022-09-09T08:37:30;99701.53;;;16.17;33.29
74169;BME280;62523;53.336;83.690;2022-09-09T08:42:39;99707.78;;;16.05;33.52
74169;BME280;62523;53.336;83.690;2022-09-09T08:58:19;99706.00;;;16.41;33.22
74169;BME280;62523;53.336;83.690;2022-09-09T09:03:34;99704.00;;;16.20;31.77
74169;BME280;62523;53.336;83.690;2022-09-09T09:13:50;99692.59;;;16.42;31.80
74169;BME280;62523;53.336;83.690;2022-09-09T09:18:53;99700.19;;;16.35;31.83
74169;BME280;62523;53.336;83.690;2022-09-09T09:24:00;99690.69;;;15.96;32.37
74169;BME280;62523;53.336;83.690;2022-09-09T09:29:10;99686.13;;;16.22;31.88
74169;BME280;62523;53.336;83.690;2022-09-09T09:34:12;99684.06;;;16.02;31.72
74169;BME280;62523;53.336;83.690;2022-09-09T09:39:28;99663.47;;;16.16;31.87
74169;BME280;62523;53.336;83.690;2022-09-09T09:44:31;99676.97;;;16.26;31.84
74169;BME280;62523;53.336;83.690;2022-09-09T09:49:33;99669.13;;;15.88;32.59
74169;BME280;62523;53.336;83.690;2022-09-09T09:54:39;99669.81;;;16.27;32.73
74169;BME280;62523;53.336;83.690;2022-09-09T09:59:43;99672.63;;;16.36;31.43
74169;BME280;62523;53.336;83.690;2022-09-09T10:04:45;99663.44;;;16.29;30.89
74169;BME280;62523;53.336;83.690;2022-09-09T10:09:53;99666.16;;;16.16;31.61
74169;BME280;62523;53.336;83.690;2022-09-09T10:15:05;99661.91;;;16.49;30.85
74169;BME280;62523;53.336;83.690;2022-09-09T10:21:12;99671.81;;;16.71;30.98
74169;BME280;62523;53.336;83.690;2022-09-09T10:26:00;99671.25;;;16.55;30.73
74169;BME280;62523;53.336;83.690;2022-09-09T10:31:24;99677.50;;;16.43;31.65
74169;BME280;62523;53.336;83.690;2022-09-09T10:36:30;99664.63;;;16.61;30.96
74169;BME280;62523;53.336;83.690;2022-09-09T10:42:16;99663.31;;;16.66;29.83
74169;BME280;62523;53.336;83.690;2022-09-09T10:47:44;99667.09;;;16.40;30.15
74169;BME280;62523;53.336;83.690;2022-09-09T10:58:25;99673.16;;;16.17;30.60
74169;BME280;62523;53.336;83.690;2022-09-09T11:03:29;99663.00;;;16.11;30.98
74169;BME280;62523;53.336;83.690;2022-09-09T11:08:32;99668.06;;;16.14;30.63
74169;BME280;62523;53.336;83.690;2022-09-09T11:18:41;99650.31;;;16.39;30.11
74169;BME280;62523;53.336;83.690;2022-09-09T11:23:48;99650.75;;;16.09;30.48
74169;BME280;62523;53.336;83.690;2022-09-09T11:34:37;99649.50;;;15.77;31.57
74169;BME280;62523;53.336;83.690;2022-09-09T11:40:02;99656.63;;;15.77;31.52
74169;BME280;62523;53.336;83.690;2022-09-09T11:45:23;99652.16;;;15.65;31.47
74169;BME280;62523;53.336;83.690;2022-09-09T11:50:27;99649.94;;;15.59;31.83
74169;BME280;62523;53.336;83.690;2022-09-09T11:55:34;99648.38;;;15.56;32.18
74169;BME280;62523;53.336;83.690;2022-09-09T12:00:42;99643.69;;;15.60;32.34
74169;BME280;62523;53.336;83.690;2022-09-09T12:05:45;99648.47;;;15.54;32.53
74169;BME280;62523;53.336;83.690;2022-09-09T12:10:56;99652.44;;;15.49;32.84
74169;BME280;62523;53.336;83.690;2022-09-09T12:15:58;99650.41;;;15.40;33.27
74169;BME280;62523;53.336;83.690;2022-09-09T12:21:07;99653.63;;;15.32;33.79
74169;BME280;62523;53.336;83.690;2022-09-09T12:36:36;99658.84;;;14.95;34.50
74169;BME280;62523;53.336;83.690;2022-09-09T12:41:38;99648.53;;;14.90;35.10
74169;BME280;62523;53.336;83.690;2022-09-09T12:46:41;99649.59;;;14.75;35.63
74169;BME280;62523;53.336;83.690;2022-09-09T12:51:43;99651.19;;;14.65;36.12
74169;BME280;62523;53.336;83.690;2022-09-09T12:56:48;99656.63;;;14.49;36.49
74169;BME280;62523;53.336;83.690;2022-09-09T13:01:59;99657.94;;;14.56;36.32
74169;BME280;62523;53.336;83.690;2022-09-09T13:07:07;99657.84;;;14.18;37.10
74169;BME280;62523;53.336;83.690;2022-09-09T13:12:17;99663.75;;;14.21;37.32
74169;BME280;62523;53.336;83.690;2022-09-09T13:17:22;99668.56;;;14.02;37.81
74169;BME280;62523;53.336;83.690;2022-09-09T13:27:35;99673.34;;;13.82;38.80
74169;BME280;62523;53.336;83.690;2022-09-09T13:32:39;99678.25;;;13.47;39.79
74169;BME280;62523;53.336;83.690;2022-09-09T13:37:40;99677.38;;;13.18;40.58
74169;BME280;62523;53.336;83.690;2022-09-09T13:42:44;99686.44;;;12.99;40.71
74169;BME280;62523;53.336;83.690;2022-09-09T13:47:46;99685.72;;;12.81;41.10
74169;BME280;62523;53.336;83.690;2022-09-09T13:52:49;99687.72;;;12.78;41.20
74169;BME280;62523;53.336;83.690;2022-09-09T13:57:57;99696.59;;;12.77;41.45
74169;BME280;62523;53.336;83.690;2022-09-09T14:02:59;99701.69;;;12.49;41.88
74169;BME280;62523;53.336;83.690;2022-09-09T14:08:07;99707.72;;;12.67;41.71
74169;BME280;62523;53.336;83.690;2022-09-09T14:13:08;99709.19;;;12.57;41.63
74169;BME280;62523;53.336;83.690;2022-09-09T14:18:11;99717.03;;;12.43;42.07
74169;BME280;62523;53.336;83.690;2022-09-09T14:23:14;99705.19;;;12.50;42.45
74169;BME280;62523;53.336;83.690;2022-09-09T14:28:16;99712.78;;;12.56;43.10
74169;BME280;62523;53.336;83.690;2022-09-09T14:33:18;99700.53;;;12.23;43.44
74169;BME280;62523;53.336;83.690;2022-09-09T14:38:19;99702.88;;;12.14;43.54
74169;BME280;62523;53.336;83.690;2022-09-09T14:43:20;99697.41;;;12.17;43.88
74169;BME280;62523;53.336;83.690;2022-09-09T14:48:22;99700.16;;;11.99;44.01
74169;BME280;62523;53.336;83.690;2022-09-09T14:53:23;99702.34;;;11.75;45.12
74169;BME280;62523;53.336;83.690;2022-09-09T14:58:24;99704.53;;;11.51;46.93
74169;BME280;62523;53.336;83.690;2022-09-09T15:03:26;99708.16;;;11.48;47.25
74169;BME280;62523;53.336;83.690;2022-09-09T15:08:27;99704.22;;;11.24;48.05
74169;BME280;62523;53.336;83.690;2022-09-09T15:13:28;99714.97;;;11.03;47.92
74169;BME280;62523;53.336;83.690;2022-09-09T15:18:29;99709.00;;;11.33;47.50
74169;BME280;62523;53.336;83.690;2022-09-09T15:23:34;99714.03;;;11.04;47.87
74169;BME280;62523;53.336;83.690;2022-09-09T15:28:37;99707.16;;;10.84;47.82
74169;BME280;62523;53.336;83.690;2022-09-09T15:33:39;99702.56;;;10.88;49.12
74169;BME280;62523;53.336;83.690;2022-09-09T15:38:40;99697.84;;;10.77;48.89
74169;BME280;62523;53.336;83.690;2022-09-09T15:43:46;99711.53;;;10.84;49.47
74169;BME280;62523;53.336;83.690;2022-09-09T15:48:47;99703.31;;;10.90;48.98
74169;BME280;62523;53.336;83.690;2022-09-09T15:53:54;99706.81;;;10.73;49.23
74169;BME280;62523;53.336;83.690;2022-09-09T15:58:57;99697.78;;;10.61;49.62
74169;BME280;62523;53.336;83.690;2022-09-09T16:03:59;99700.09;;;10.68;50.10
74169;BME280;62523;53.336;83.690;2022-09-09T16:09:03;99683.59;;;10.64;50.48
74169;BME280;62523;53.336;83.690;2022-09-09T16:14:05;99687.16;;;10.45;50.55
74169;BME280;62523;53.336;83.690;2022-09-09T16:19:09;99686.69;;;11.23;48.10
74169;BME280;62523;53.336;83.690;2022-09-09T16:24:13;99683.69;;;11.13;47.99
74169;BME280;62523;53.336;83.690;2022-09-09T16:29:16;99689.91;;;10.95;48.46
74169;BME280;62523;53.336;83.690;2022-09-09T16:34:18;99681.81;;;11.15;47.82
74169;BME280;62523;53.336;83.690;2022-09-09T16:39:20;99679.88;;;10.68;48.58
74169;BME280;62523;53.336;83.690;2022-09-09T16:44:21;99681.34;;;10.56;48.74
74169;BME280;62523;53.336;83.690;2022-09-09T16:49:23;99671.56;;;10.41;49.08
74169;BME280;62523;53.336;83.690;2022-09-09T16:54:24;99671.72;;;10.38;49.27
74169;BME280;62523;53.336;83.690;2022-09-09T16:59:27;99674.78;;;10.29;50.88
74169;BME280;62523;53.336;83.690;2022-09-09T17:04:29;99681.97;;;10.25;52.06
74169;BME280;62523;53.336;83.690;2022-09-09T17:09:31;99675.88;;;10.24;53.92
74169;BME280;62523;53.336;83.690;2022-09-09T17:14:33;99678.19;;;10.13;54.34
74169;BME280;62523;53.336;83.690;2022-09-09T17:19:34;99680.81;;;9.77;55.33
74169;BME280;62523;53.336;83.690;2022-09-09T17:24:35;99681.31;;;9.47;56.67
74169;BME280;62523;53.336;83.690;2022-09-09T17:29:39;99675.69;;;9.36;56.79
74169;BME280;62523;53.336;83.690;2022-09-09T17:34:40;99680.06;;;9.16;57.73
74169;BME280;62523;53.336;83.690;2022-09-09T17:39:41;99688.69;;;9.39;58.31
74169;BME280;62523;53.336;83.690;2022-09-09T17:44:43;99687.88;;;9.18;58.56
74169;BME280;62523;53.336;83.690;2022-09-09T17:49:44;99673.00;;;8.98;59.34
74169;BME280;62523;53.336;83.690;2022-09-09T17:54:47;99681.44;;;9.05;59.13
74169;BME280;62523;53.336;83.690;2022-09-09T17:59:49;99674.66;;;8.80;59.43
74169;BME280;62523;53.336;83.690;2022-09-09T18:04:50;99679.31;;;8.53;60.63
74169;BME280;62523;53.336;83.690;2022-09-09T18:09:51;99678.78;;;8.65;60.07
74169;BME280;62523;53.336;83.690;2022-09-09T18:14:53;99675.91;;;8.29;60.96
74169;BME280;62523;53.336;83.690;2022-09-09T18:19:56;99672.84;;;8.39;59.57
74169;BME280;62523;53.336;83.690;2022-09-09T18:24:57;99672.88;;;8.60;60.00
74169;BME280;62523;53.336;83.690;2022-09-09T18:29:59;99670.72;;;8.70;58.25
74169;BME280;62523;53.336;83.690;2022-09-09T18:35:00;99660.72;;;8.78;57.45
74169;BME280;62523;53.336;83.690;2022-09-09T18:40:02;99661.47;;;8.61;56.09
74169;BME280;62523;53.336;83.690;2022-09-09T18:45:04;99658.22;;;8.95;54.51
74169;BME280;62523;53.336;83.690;2022-09-09T18:50:05;99645.94;;;8.96;54.12
74169;BME280;62523;53.336;83.690;2022-09-09T18:55:07;99640.81;;;9.12;53.86
74169;BME280;62523;53.336;83.690;2022-09-09T19:00:09;99629.63;;;9.08;53.63
74169;BME280;62523;53.336;83.690;2022-09-09T19:05:11;99636.94;;;9.20;53.35
74169;BME280;62523;53.336;83.690;2022-09-09T19:10:12;99624.84;;;8.97;54.23
74169;BME280;62523;53.336;83.690;2022-09-09T19:15:15;99635.47;;;8.94;54.50
74169;BME280;62523;53.336;83.690;2022-09-09T19:20:16;99623.38;;;9.11;54.63
74169;BME280;62523;53.336;83.690;2022-09-09T19:25:17;99629.44;;;8.92;54.82
74169;BME280;62523;53.336;83.690;2022-09-09T19:30:18;99620.91;;;8.87;54.65
74169;BME280;62523;53.336;83.690;2022-09-09T19:35:20;99621.38;;;8.76;55.87
74169;BME280;62523;53.336;83.690;2022-09-09T19:40:21;99619.25;;;8.66;55.62
74169;BME280;62523;53.336;83.690;2022-09-09T19:45:23;99612.63;;;8.57;56.04
74169;BME280;62523;53.336;83.690;2022-09-09T19:50:24;99614.84;;;8.46;56.11
74169;BME280;62523;53.336;83.690;2022-09-09T19:55:25;99608.09;;;8.38;56.54
74169;BME280;62523;53.336;83.690;2022-09-09T20:00:27;99601.56;;;8.28;56.94
74169;BME280;62523;53.336;83.690;2022-09-09T20:05:30;99610.34;;;8.27;56.98
74169;BME280;62523;53.336;83.690;2022-09-09T20:10:31;99612.28;;;8.02;57.25
74169;BME280;62523;53.336;83.690;2022-09-09T20:15:32;99612.31;;;7.79;58.38
74169;BME280;62523;53.336;83.690;2022-09-09T20:20:39;99604.19;;;7.86;58.56
74169;BME280;62523;53.336;83.690;2022-09-09T20:25:41;99601.06;;;7.98;58.28
74169;BME280;62523;53.336;83.690;2022-09-09T20:30:43;99606.81;;;8.28;57.80
74169;BME280;62523;53.336;83.690;2022-09-09T20:35:44;99604.75;;;8.14;58.18
74169;BME280;62523;53.336;83.690;2022-09-09T20:40:46;99593.97;;;8.00;58.39
74169;BME280;62523;53.336;83.690;2022-09-09T20:45:47;99603.78;;;7.74;59.40
74169;BME280;62523;53.336;83.690;2022-09-09T20:50:49;99586.81;;;7.83;59.95
74169;BME280;62523;53.336;83.690;2022-09-09T20:55:51;99588.03;;;7.52;59.99
74169;BME280;62523;53.336;83.690;2022-09-09T21:00:52;99585.81;;;7.20;61.73
74169;BME280;62523;53.336;83.690;2022-09-09T21:05:53;99582.38;;;7.17;61.28
74169;BME280;62523;53.336;83.690;2022-09-09T21:10:55;99594.69;;;7.15;63.01
74169;BME280;62523;53.336;83.690;2022-09-09T21:15:57;99598.31;;;7.35;61.64
74169;BME280;62523;53.336;83.690;2022-09-09T21:20:58;99598.06;;;7.19;61.84
74169;BME280;62523;53.336;83.690;2022-09-09T21:25:59;99595.44;;;7.19;61.94
74169;BME280;62523;53.336;83.690;2022-09-09T21:31:01;99604.69;;;7.06;62.22
74169;BME280;62523;53.336;83.690;2022-09-09T21:36:06;99592.03;;;6.93;62.25
74169;BME280;62523;53.336;83.690;2022-09-09T21:41:10;99602.66;;;6.65;63.77
74169;BME280;62523;53.336;83.690;2022-09-09T21:46:16;99592.53;;;6.31;65.68
74169;BME280;62523;53.336;83.690;2022-09-09T21:51:17;99591.66;;;6.30;65.22
74169;BME280;62523;53.336;83.690;2022-09-09T21:56:19;99604.91;;;6.51;64.99
74169;BME280;62523;53.336;83.690;2022-09-09T22:01:20;99602.13;;;6.55;64.61
74169;BME280;62523;53.336;83.690;2022-09-09T22:06:24;99591.72;;;6.54;64.45
74169;BME280;62523;53.336;83.690;2022-09-09T22:11:26;99594.63;;;6.45;65.57
74169;BME280;62523;53.336;83.690;2022-09-09T22:16:28;99599.72;;;6.24;66.10
74169;BME280;62523;53.336;83.690;2022-09-09T22:21:30;99595.31;;;6.75;64.90
74169;BME280;62523;53.336;83.690;2022-09-09T22:26:34;99601.03;;;6.86;64.00
74169;BME280;62523;53.336;83.690;2022-09-09T22:31:36;99614.00;;;6.89;64.44
74169;BME280;62523;53.336;83.690;2022-09-09T22:36:37;99610.47;;;6.90;64.56
74169;BME280;62523;53.336;83.690;2022-09-09T22:41:38;99605.69;;;6.78;64.67
74169;BME280;62523;53.336;83.690;2022-09-09T22:46:40;99597.03;;;6.76;64.82
74169;BME280;62523;53.336;83.690;2022-09-09T22:51:41;99595.66;;;6.66;65.32
74169;BME280;62523;53.336;83.690;2022-09-09T22:56:42;99601.53;;;6.72;65.27
74169;BME280;62523;53.336;83.690;2022-09-09T23:01:43;99596.97;;;6.54;66.13
74169;BME280;62523;53.336;83.690;2022-09-09T23:06:44;99597.59;;;6.35;66.38
74169;BME280;62523;53.336;83.690;2022-09-09T23:11:46;99596.25;;;5.97;68.13
74169;BME280;62523;53.336;83.690;2022-09-09T23:16:47;99591.16;;;5.66;69.67
74169;BME280;62523;53.336;83.690;2022-09-09T23:21:52;99593.34;;;5.78;69.57
74169;BME280;62523;53.336;83.690;2022-09-09T23:26:54;99595.63;;;5.62;70.57
74169;BME280;62523;53.336;83.690;2022-09-09T23:31:55;99583.56;;;5.30;73.40
74169;BME280;62523;53.336;83.690;2022-09-09T23:36:56;99596.25;;;5.42;74.47
74169;BME280;62523;53.336;83.690;2022-09-09T23:41:57;99601.25;;;5.48;74.77
74169;BME280;62523;53.336;83.690;2022-09-09T23:46:59;99603.41;;;5.36;76.14
74169;BME280;62523;53.336;83.690;2022-09-09T23:52:02;99599.38;;;5.25;76.73
74169;BME280;62523;53.336;83.690;2022-09-09T23:57:05;99605.88;;;5.12;78.49
